AMX965 MMBT-MMTM
Flight info
| Callsign | AMX965 |
|---|---|
| Flight time | N/A |
| Altitude | 32000 |
| Route | HUX3B HUX UJ39 NUDOS UJ70 VER/N0376F180 T61 ANILO |
| Aircraft | B738/M-SDE2E3FGHIRWXY/LB1 |
Departure
| Time | N/A |
|---|---|
| Airport | Bahías de Huatulco International Airport (MMBT) |
Arrival
| Time | 2026-04-20 02:38 |
|---|---|
| Airport | General Francisco Javier Mina International Airport (MMTM) |
| Time | Latitude | Longitude | Altitude | Speed | Heading |
|---|---|---|---|---|---|
| 2026-04-20 01:40 | 15.81396 | -95.80151 | 11249 ft | 346 kts | 354° |
| 2026-04-20 01:40 | 15.83783 | -95.80637 | 11592 ft | 351 kts | 349° |
| 2026-04-20 01:40 | 15.86169 | -95.81259 | 11948 ft | 352 kts | 348° |
| 2026-04-20 01:40 | 15.88534 | -95.81916 | 12568 ft | 354 kts | 347° |
| 2026-04-20 01:41 | 15.90949 | -95.82586 | 13274 ft | 363 kts | 348° |
| 2026-04-20 01:41 | 15.93409 | -95.83254 | 13952 ft | 368 kts | 348° |
| 2026-04-20 01:41 | 15.95922 | -95.83926 | 14622 ft | 374 kts | 348° |
| 2026-04-20 01:41 | 15.98466 | -95.84601 | 15301 ft | 379 kts | 348° |
| 2026-04-20 01:42 | 16.01033 | -95.85279 | 15993 ft | 383 kts | 348° |
| 2026-04-20 01:42 | 16.03654 | -95.85971 | 16692 ft | 390 kts | 348° |
| 2026-04-20 01:42 | 16.06305 | -95.86672 | 17378 ft | 395 kts | 348° |
| 2026-04-20 01:42 | 16.08981 | -95.87381 | 18116 ft | 397 kts | 348° |
| 2026-04-20 01:43 | 16.11644 | -95.88088 | 18913 ft | 400 kts | 347° |
| 2026-04-20 01:43 | 16.14372 | -95.88813 | 19727 ft | 404 kts | 347° |
| 2026-04-20 01:43 | 16.17076 | -95.89530 | 20525 ft | 406 kts | 347° |
| 2026-04-20 01:43 | 16.19826 | -95.90259 | 21326 ft | 409 kts | 347° |
| 2026-04-20 01:44 | 16.22591 | -95.90991 | 22123 ft | 410 kts | 346° |
| 2026-04-20 01:44 | 16.25368 | -95.91728 | 22940 ft | 411 kts | 346° |
| 2026-04-20 01:44 | 16.28142 | -95.92465 | 23765 ft | 412 kts | 346° |
| 2026-04-20 01:44 | 16.30937 | -95.93208 | 24389 ft | 418 kts | 346° |
| 2026-04-20 01:45 | 16.33774 | -95.93961 | 24888 ft | 426 kts | 346° |
| 2026-04-20 01:45 | 16.36680 | -95.94731 | 25392 ft | 434 kts | 346° |
| 2026-04-20 01:45 | 16.39616 | -95.95511 | 25561 ft | 443 kts | 346° |
| 2026-04-20 01:45 | 16.42651 | -95.96317 | 25533 ft | 448 kts | 346° |
| 2026-04-20 01:46 | 16.45669 | -95.97119 | 25515 ft | 446 kts | 346° |
| 2026-04-20 01:46 | 16.48666 | -95.97910 | 25496 ft | 443 kts | 347° |
| 2026-04-20 01:46 | 16.51710 | -95.98495 | 25497 ft | 442 kts | 353° |
| 2026-04-20 01:46 | 16.54781 | -95.98812 | 25503 ft | 443 kts | 356° |
| 2026-04-20 01:47 | 16.57883 | -95.99006 | 25517 ft | 444 kts | 357° |
| 2026-04-20 01:47 | 16.61004 | -95.99161 | 25567 ft | 453 kts | 358° |
| 2026-04-20 01:47 | 16.64156 | -95.99318 | 25683 ft | 460 kts | 357° |
| 2026-04-20 01:47 | 16.67403 | -95.99496 | 25796 ft | 468 kts | 357° |
| 2026-04-20 01:48 | 16.70676 | -95.99696 | 25909 ft | 475 kts | 356° |
| 2026-04-20 01:48 | 16.74020 | -95.99916 | 26111 ft | 481 kts | 356° |
| 2026-04-20 01:48 | 16.77395 | -96.00153 | 26364 ft | 489 kts | 356° |
| 2026-04-20 01:48 | 16.80796 | -96.00401 | 26615 ft | 491 kts | 356° |
| 2026-04-20 01:49 | 16.84202 | -96.00657 | 26867 ft | 489 kts | 355° |
| 2026-04-20 01:49 | 16.87585 | -96.00916 | 27120 ft | 486 kts | 355° |
| 2026-04-20 01:49 | 16.90962 | -96.01177 | 27375 ft | 485 kts | 355° |
| 2026-04-20 01:49 | 16.94321 | -96.01440 | 27629 ft | 486 kts | 355° |
| 2026-04-20 01:50 | 16.97697 | -96.01704 | 27884 ft | 485 kts | 355° |
| 2026-04-20 01:50 | 17.01076 | -96.01971 | 28140 ft | 486 kts | 355° |
| 2026-04-20 01:50 | 17.04452 | -96.02238 | 28397 ft | 486 kts | 355° |
| 2026-04-20 01:50 | 17.07860 | -96.02508 | 28656 ft | 486 kts | 355° |
| 2026-04-20 01:51 | 17.11256 | -96.02776 | 28914 ft | 487 kts | 355° |
| 2026-04-20 01:51 | 17.14619 | -96.03041 | 29168 ft | 487 kts | 355° |
| 2026-04-20 01:51 | 17.18006 | -96.03309 | 29425 ft | 486 kts | 355° |
| 2026-04-20 01:51 | 17.21377 | -96.03574 | 29682 ft | 485 kts | 355° |
| 2026-04-20 01:52 | 17.24725 | -96.03836 | 29938 ft | 484 kts | 355° |
| 2026-04-20 01:52 | 17.28094 | -96.04101 | 30196 ft | 484 kts | 355° |
| 2026-04-20 01:52 | 17.31460 | -96.04364 | 30454 ft | 484 kts | 355° |
| 2026-04-20 01:52 | 17.34866 | -96.04631 | 30715 ft | 485 kts | 355° |
| 2026-04-20 01:53 | 17.38234 | -96.04896 | 30973 ft | 485 kts | 355° |
| 2026-04-20 01:53 | 17.41616 | -96.05203 | 31232 ft | 485 kts | 352° |
| 2026-04-20 01:53 | 17.44942 | -96.05776 | 31491 ft | 484 kts | 347° |
| 2026-04-20 01:53 | 17.48189 | -96.06590 | 31749 ft | 483 kts | 344° |
| 2026-04-20 01:54 | 17.51451 | -96.07535 | 32010 ft | 482 kts | 343° |
| 2026-04-20 01:54 | 17.54693 | -96.08513 | 31673 ft | 491 kts | 342° |
| 2026-04-20 01:54 | 17.58033 | -96.09518 | 29847 ft | 513 kts | 343° |
| 2026-04-20 01:54 | 17.61326 | -96.10472 | 30279 ft | 471 kts | 343° |
| 2026-04-20 01:55 | 17.64360 | -96.11320 | 31606 ft | 429 kts | 344° |
| 2026-04-20 01:55 | 17.67159 | -96.12087 | 32595 ft | 413 kts | 344° |
| 2026-04-20 01:55 | 17.69912 | -96.12834 | 33209 ft | 410 kts | 344° |
| 2026-04-20 01:55 | 17.72699 | -96.13588 | 33512 ft | 415 kts | 343° |
| 2026-04-20 01:56 | 17.75516 | -96.14345 | 33794 ft | 421 kts | 344° |
| 2026-04-20 01:56 | 17.78370 | -96.15107 | 34075 ft | 425 kts | 344° |
| 2026-04-20 01:56 | 17.81268 | -96.15877 | 34358 ft | 430 kts | 344° |
| 2026-04-20 01:56 | 17.84229 | -96.16662 | 34642 ft | 435 kts | 344° |
| 2026-04-20 01:57 | 17.87167 | -96.17439 | 34919 ft | 439 kts | 344° |
| 2026-04-20 01:57 | 17.90160 | -96.18231 | 35200 ft | 443 kts | 343° |
| 2026-04-20 01:57 | 17.93196 | -96.19035 | 35481 ft | 447 kts | 343° |
| 2026-04-20 01:57 | 17.96288 | -96.19853 | 35768 ft | 450 kts | 343° |
| 2026-04-20 01:58 | 17.99362 | -96.20667 | 36038 ft | 454 kts | 343° |
| 2026-04-20 01:58 | 18.02477 | -96.21492 | 36090 ft | 462 kts | 343° |
| 2026-04-20 01:58 | 18.08781 | -96.23164 | 36088 ft | 469 kts | 344° |
| 2026-04-20 01:59 | 18.15115 | -96.24840 | 36098 ft | 465 kts | 343° |
| 2026-04-20 01:59 | 18.21458 | -96.26520 | 36104 ft | 464 kts | 343° |
| 2026-04-20 02:00 | 18.27754 | -96.28191 | 36099 ft | 464 kts | 343° |
| 2026-04-20 02:00 | 18.34043 | -96.29862 | 36109 ft | 463 kts | 343° |
| 2026-04-20 02:01 | 18.40293 | -96.31524 | 36109 ft | 463 kts | 343° |
| 2026-04-20 02:01 | 18.46582 | -96.33198 | 36100 ft | 464 kts | 343° |
| 2026-04-20 02:02 | 18.52886 | -96.34875 | 36115 ft | 464 kts | 343° |
| 2026-04-20 02:02 | 18.59140 | -96.36544 | 36110 ft | 464 kts | 343° |
| 2026-04-20 02:03 | 18.65450 | -96.38226 | 36117 ft | 463 kts | 343° |
| 2026-04-20 02:03 | 18.71689 | -96.39891 | 36120 ft | 462 kts | 342° |
| 2026-04-20 02:04 | 18.77954 | -96.41563 | 36125 ft | 462 kts | 342° |
| 2026-04-20 02:04 | 18.84208 | -96.43234 | 36125 ft | 462 kts | 343° |
| 2026-04-20 02:05 | 18.90453 | -96.44904 | 36132 ft | 462 kts | 342° |
| 2026-04-20 02:05 | 18.96716 | -96.46582 | 36127 ft | 461 kts | 342° |
| 2026-04-20 02:06 | 19.02922 | -96.48246 | 36134 ft | 462 kts | 342° |
| 2026-04-20 02:06 | 19.09189 | -96.49927 | 36137 ft | 461 kts | 342° |
| 2026-04-20 02:07 | 19.15432 | -96.51604 | 36143 ft | 462 kts | 342° |
| 2026-04-20 02:07 | 19.21684 | -96.53285 | 36152 ft | 462 kts | 342° |
| 2026-04-20 02:08 | 19.27927 | -96.54964 | 36164 ft | 461 kts | 342° |
| 2026-04-20 02:08 | 19.34153 | -96.56638 | 36167 ft | 461 kts | 342° |
| 2026-04-20 02:09 | 19.40400 | -96.58320 | 36180 ft | 462 kts | 342° |
| 2026-04-20 02:09 | 19.46611 | -96.59994 | 36182 ft | 461 kts | 342° |
| 2026-04-20 02:10 | 19.52887 | -96.61686 | 36190 ft | 461 kts | 342° |
| 2026-04-20 02:10 | 19.59144 | -96.63373 | 36211 ft | 461 kts | 342° |
| 2026-04-20 02:11 | 19.65400 | -96.65061 | 36216 ft | 461 kts | 341° |
| 2026-04-20 02:11 | 19.71640 | -96.66746 | 36233 ft | 461 kts | 341° |
| 2026-04-20 02:12 | 19.77881 | -96.68434 | 36238 ft | 460 kts | 341° |
| 2026-04-20 02:12 | 19.84135 | -96.70127 | 36224 ft | 460 kts | 341° |
| 2026-04-20 02:13 | 19.90341 | -96.71807 | 36206 ft | 460 kts | 341° |
| 2026-04-20 02:13 | 19.96563 | -96.73496 | 36182 ft | 461 kts | 341° |
| 2026-04-20 02:14 | 20.02815 | -96.75194 | 36172 ft | 460 kts | 341° |
| 2026-04-20 02:14 | 20.09028 | -96.76882 | 36170 ft | 460 kts | 341° |
| 2026-04-20 02:15 | 20.15257 | -96.78576 | 36169 ft | 460 kts | 341° |
| 2026-04-20 02:15 | 20.21467 | -96.80267 | 36161 ft | 460 kts | 341° |
| 2026-04-20 02:16 | 20.27699 | -96.81962 | 36153 ft | 459 kts | 341° |
| 2026-04-20 02:16 | 20.33888 | -96.83646 | 36156 ft | 460 kts | 341° |
| 2026-04-20 02:17 | 20.39988 | -96.85591 | 36155 ft | 455 kts | 334° |
| 2026-04-20 02:17 | 20.45766 | -96.88310 | 36151 ft | 452 kts | 329° |
| 2026-04-20 02:18 | 20.51406 | -96.91309 | 36146 ft | 452 kts | 328° |
| 2026-04-20 02:18 | 20.57020 | -96.94338 | 36143 ft | 452 kts | 329° |
| 2026-04-20 02:19 | 20.62683 | -96.97364 | 36147 ft | 453 kts | 329° |
| 2026-04-20 02:19 | 20.68344 | -97.00370 | 36139 ft | 452 kts | 329° |
| 2026-04-20 02:20 | 20.73964 | -97.03346 | 36145 ft | 452 kts | 329° |
| 2026-04-20 02:20 | 20.79605 | -97.06333 | 36139 ft | 451 kts | 329° |
| 2026-04-20 02:21 | 20.85276 | -97.09337 | 35381 ft | 455 kts | 329° |
| 2026-04-20 02:21 | 20.88106 | -97.10836 | 34808 ft | 452 kts | 329° |
| 2026-04-20 02:21 | 20.90899 | -97.12314 | 34240 ft | 448 kts | 329° |
| 2026-04-20 02:22 | 20.93717 | -97.13805 | 33667 ft | 446 kts | 329° |
| 2026-04-20 02:22 | 20.96505 | -97.15283 | 33098 ft | 446 kts | 329° |
| 2026-04-20 02:22 | 20.99256 | -97.16744 | 32576 ft | 448 kts | 329° |
| 2026-04-20 02:22 | 21.02085 | -97.18250 | 32051 ft | 450 kts | 329° |
| 2026-04-20 02:23 | 21.04887 | -97.19740 | 31537 ft | 453 kts | 329° |
| 2026-04-20 02:23 | 21.07718 | -97.21246 | 31017 ft | 457 kts | 329° |
| 2026-04-20 02:23 | 21.10580 | -97.22772 | 30504 ft | 465 kts | 329° |
| 2026-04-20 02:23 | 21.13522 | -97.24341 | 29986 ft | 471 kts | 329° |
| 2026-04-20 02:24 | 21.16438 | -97.25893 | 29399 ft | 471 kts | 329° |
| 2026-04-20 02:24 | 21.19375 | -97.27452 | 28760 ft | 466 kts | 329° |
| 2026-04-20 02:24 | 21.22275 | -97.28992 | 28135 ft | 462 kts | 330° |
| 2026-04-20 02:24 | 21.25159 | -97.30527 | 27515 ft | 464 kts | 330° |
| 2026-04-20 02:25 | 21.28030 | -97.32057 | 26903 ft | 468 kts | 330° |
| 2026-04-20 02:25 | 21.30990 | -97.33637 | 26276 ft | 472 kts | 330° |
| 2026-04-20 02:25 | 21.33911 | -97.35197 | 25666 ft | 475 kts | 330° |
| 2026-04-20 02:25 | 21.36892 | -97.36787 | 25045 ft | 476 kts | 330° |
| 2026-04-20 02:26 | 21.39865 | -97.38371 | 24426 ft | 473 kts | 330° |
| 2026-04-20 02:26 | 21.42772 | -97.39920 | 23821 ft | 469 kts | 331° |
| 2026-04-20 02:26 | 21.45686 | -97.41473 | 23222 ft | 465 kts | 331° |
| 2026-04-20 02:26 | 21.48576 | -97.43014 | 22628 ft | 461 kts | 331° |
| 2026-04-20 02:27 | 21.51462 | -97.44556 | 22030 ft | 458 kts | 331° |
| 2026-04-20 02:27 | 21.54298 | -97.46074 | 21441 ft | 454 kts | 331° |
| 2026-04-20 02:27 | 21.57107 | -97.47579 | 20858 ft | 451 kts | 332° |
| 2026-04-20 02:27 | 21.59896 | -97.49074 | 20269 ft | 448 kts | 332° |
| 2026-04-20 02:28 | 21.62680 | -97.50567 | 19681 ft | 444 kts | 332° |
| 2026-04-20 02:28 | 21.65449 | -97.52052 | 19092 ft | 441 kts | 333° |
| 2026-04-20 02:28 | 21.68171 | -97.53515 | 18500 ft | 436 kts | 333° |
| 2026-04-20 02:28 | 21.70851 | -97.54955 | 17920 ft | 433 kts | 333° |
| 2026-04-20 02:29 | 21.73549 | -97.56407 | 17326 ft | 429 kts | 333° |
| 2026-04-20 02:29 | 21.76224 | -97.57847 | 16732 ft | 427 kts | 333° |
| 2026-04-20 02:29 | 21.78866 | -97.59267 | 16145 ft | 426 kts | 334° |
| 2026-04-20 02:29 | 21.81502 | -97.60684 | 15555 ft | 424 kts | 334° |
| 2026-04-20 02:30 | 21.84151 | -97.62109 | 14957 ft | 421 kts | 334° |
| 2026-04-20 02:30 | 21.86743 | -97.63504 | 14242 ft | 417 kts | 334° |
| 2026-04-20 02:30 | 21.89298 | -97.64880 | 13265 ft | 408 kts | 334° |
| 2026-04-20 02:30 | 21.91811 | -97.66234 | 12269 ft | 400 kts | 334° |
| 2026-04-20 02:31 | 21.94273 | -97.67560 | 11263 ft | 392 kts | 334° |
| 2026-04-20 02:31 | 21.96672 | -97.68852 | 10254 ft | 386 kts | 334° |
| 2026-04-20 02:31 | 21.99035 | -97.70126 | 9229 ft | 380 kts | 334° |
| 2026-04-20 02:31 | 22.01387 | -97.71394 | 8183 ft | 375 kts | 334° |
| 2026-04-20 02:32 | 22.03674 | -97.72628 | 7146 ft | 369 kts | 334° |
| 2026-04-20 02:32 | 22.05957 | -97.73860 | 6094 ft | 363 kts | 335° |
| 2026-04-20 02:32 | 22.08172 | -97.75056 | 5041 ft | 358 kts | 335° |
| 2026-04-20 02:32 | 22.10403 | -97.76259 | 3765 ft | 357 kts | 334° |
| 2026-04-20 02:33 | 22.12586 | -97.77437 | 2717 ft | 346 kts | 335° |
| 2026-04-20 02:33 | 22.14663 | -97.78561 | 2178 ft | 323 kts | 335° |
| 2026-04-20 02:33 | 22.16598 | -97.79617 | 2047 ft | 292 kts | 336° |
| 2026-04-20 02:33 | 22.18324 | -97.80559 | 2044 ft | 261 kts | 335° |
| 2026-04-20 02:34 | 22.19859 | -97.81394 | 2046 ft | 235 kts | 336° |
| 2026-04-20 02:34 | 22.21250 | -97.82147 | 2046 ft | 213 kts | 337° |
| 2026-04-20 02:34 | 22.22442 | -97.83003 | 2052 ft | 197 kts | 315° |
| 2026-04-20 02:34 | 22.22969 | -97.84302 | 2051 ft | 196 kts | 277° |
| 2026-04-20 02:35 | 22.22684 | -97.85780 | 2001 ft | 200 kts | 251° |
| 2026-04-20 02:35 | 22.22132 | -97.87092 | 1923 ft | 184 kts | 253° |
| 2026-04-20 02:35 | 22.22013 | -97.88364 | 1784 ft | 161 kts | 295° |
| 2026-04-20 02:35 | 22.22627 | -97.89198 | 1738 ft | 136 kts | 345° |
| 2026-04-20 02:36 | 22.23575 | -97.89283 | 1790 ft | 139 kts | 6° |
| 2026-04-20 02:36 | 22.24489 | -97.89013 | 1758 ft | 137 kts | 37° |
| 2026-04-20 02:36 | 22.25148 | -97.88300 | 1627 ft | 132 kts | 41° |
| 2026-04-20 02:36 | 22.25894 | -97.87653 | 1028 ft | 145 kts | 34° |
| 2026-04-20 02:37 | 22.26753 | -97.87098 | 593 ft | 143 kts | 24° |
| 2026-04-20 02:37 | 22.27704 | -97.86739 | 360 ft | 149 kts | 16° |
| 2026-04-20 02:37 | 22.28691 | -97.86499 | 125 ft | 139 kts | 13° |
| 2026-04-20 02:37 | 22.29467 | -97.86307 | 71 ft | 80 kts | 14° |
| 2026-04-20 02:38 | 22.29788 | -97.86252 | 64 ft | 15 kts | 354° |
| 2026-04-20 02:38 | 22.29799 | -97.86253 | 64 ft | 0 kts | 354° |
| 2026-04-20 02:38 | 22.29803 | -97.86253 | 64 ft | 6 kts | 354° |
| 2026-04-20 02:38 | 22.29939 | -97.86256 | 63 ft | 24 kts | 16° |
| 2026-04-20 02:39 | 22.30085 | -97.86308 | 64 ft | 24 kts | 292° |
| 2026-04-20 02:39 | 22.30087 | -97.86371 | 65 ft | 1 kts | 274° |
| 2026-04-20 02:39 | 22.30094 | -97.86376 | 65 ft | 2 kts | 40° |
| 2026-04-20 02:39 | 22.30093 | -97.86341 | 65 ft | 5 kts | 99° |
| 2026-04-20 02:40 | 22.30085 | -97.86291 | 63 ft | 8 kts | 99° |
| 2026-04-20 02:40 | 22.30083 | -97.86275 | 62 ft | 0 kts | 99° |
| 2026-04-20 02:41 | 22.30083 | -97.86273 | 62 ft | 1 kts | 99° |
| 2026-04-20 02:41 | 22.30079 | -97.86246 | 61 ft | 7 kts | 99° |
| 2026-04-20 02:41 | 22.30074 | -97.86227 | 60 ft | 1 kts | 129° |
| 2026-04-20 02:41 | 22.30049 | -97.86230 | 60 ft | 5 kts | 175° |
| 2026-04-20 02:42 | 22.29943 | -97.86252 | 62 ft | 37 kts | 191° |
| 2026-04-20 02:42 | 22.29576 | -97.86313 | 69 ft | 55 kts | 193° |
| 2026-04-20 02:42 | 22.29250 | -97.86400 | 78 ft | 39 kts | 212° |
| 2026-04-20 02:42 | 22.29073 | -97.86433 | 83 ft | 14 kts | 164° |
| 2026-04-20 02:43 | 22.29028 | -97.86450 | 84 ft | 8 kts | 246° |
| 2026-04-20 02:43 | 22.29052 | -97.86527 | 87 ft | 7 kts | 303° |
| 2026-04-20 02:43 | 22.29115 | -97.86602 | 89 ft | 18 kts | 315° |
| 2026-04-20 02:43 | 22.29130 | -97.86641 | 90 ft | 0 kts | 221° |
| 2026-04-20 02:44 | 22.29089 | -97.86702 | 91 ft | 24 kts | 234° |
| 2026-04-20 02:44 | 22.29005 | -97.86833 | 96 ft | 13 kts | 235° |
| 2026-04-20 02:44 | 22.28971 | -97.86881 | 99 ft | 4 kts | 222° |
| 2026-04-20 02:44 | 22.28955 | -97.86895 | 100 ft | 1 kts | 219° |
| 2026-04-20 02:45 | 22.28949 | -97.86900 | 100 ft | 0 kts | 218° |